sensor_id;sensor_type;location;lat;lon;timestamp;temperature;humidity
59973;DHT22;55298;-36.624;-64.282;2023-02-02T00:01:33;24.00;99.90
59973;DHT22;55298;-36.624;-64.282;2023-02-02T00:04:01;24.00;99.90
59973;DHT22;55298;-36.624;-64.282;2023-02-02T00:06:31;24.00;99.90
59973;DHT22;55298;-36.624;-64.282;2023-02-02T00:09:02;24.00;99.90
59973;DHT22;55298;-36.624;-64.282;2023-02-02T00:11:30;24.00;99.90
59973;DHT22;55298;-36.624;-64.282;2023-02-02T00:13:59;24.00;99.90
59973;DHT22;55298;-36.624;-64.282;2023-02-02T00:16:40;24.00;99.90
59973;DHT22;55298;-36.624;-64.282;2023-02-02T00:19:14;24.00;99.90
59973;DHT22;55298;-36.624;-64.282;2023-02-02T00:21:45;24.10;99.90
59973;DHT22;55298;-36.624;-64.282;2023-02-02T00:24:17;24.00;99.90
59973;DHT22;55298;-36.624;-64.282;2023-02-02T00:26:49;24.00;99.90
59973;DHT22;55298;-36.624;-64.282;2023-02-02T00:29:21;24.00;99.90
59973;DHT22;55298;-36.624;-64.282;2023-02-02T00:31:50;24.00;99.90
59973;DHT22;55298;-36.624;-64.282;2023-02-02T00:34:20;23.90;99.90
59973;DHT22;55298;-36.624;-64.282;2023-02-02T00:36:49;23.90;99.90
59973;DHT22;55298;-36.624;-64.282;2023-02-02T00:39:20;23.90;99.90
59973;DHT22;55298;-36.624;-64.282;2023-02-02T00:41:48;23.80;99.90
59973;DHT22;55298;-36.624;-64.282;2023-02-02T00:44:16;23.80;99.90
59973;DHT22;55298;-36.624;-64.282;2023-02-02T00:46:53;23.80;99.90
59973;DHT22;55298;-36.624;-64.282;2023-02-02T00:49:21;23.80;99.90
59973;DHT22;55298;-36.624;-64.282;2023-02-02T00:51:49;23.70;99.90
59973;DHT22;55298;-36.624;-64.282;2023-02-02T00:54:18;23.70;99.90
59973;DHT22;55298;-36.624;-64.282;2023-02-02T00:56:47;23.70;99.90
59973;DHT22;55298;-36.624;-64.282;2023-02-02T00:59:14;23.70;99.90
59973;DHT22;55298;-36.624;-64.282;2023-02-02T01:01:49;23.70;99.90
59973;DHT22;55298;-36.624;-64.282;2023-02-02T01:04:18;23.60;99.90
59973;DHT22;55298;-36.624;-64.282;2023-02-02T01:06:49;23.60;99.90
59973;DHT22;55298;-36.624;-64.282;2023-02-02T01:09:19;23.60;99.90
59973;DHT22;55298;-36.624;-64.282;2023-02-02T01:11:47;23.60;99.90
59973;DHT22;55298;-36.624;-64.282;2023-02-02T01:14:16;23.60;99.90
59973;DHT22;55298;-36.624;-64.282;2023-02-02T01:16:43;23.60;99.90
59973;DHT22;55298;-36.624;-64.282;2023-02-02T01:19:14;23.60;99.90
59973;DHT22;55298;-36.624;-64.282;2023-02-02T01:21:42;23.50;99.90
59973;DHT22;55298;-36.624;-64.282;2023-02-02T01:24:11;23.70;99.90
59973;DHT22;55298;-36.624;-64.282;2023-02-02T01:26:39;23.70;99.90
59973;DHT22;55298;-36.624;-64.282;2023-02-02T01:29:07;23.70;99.90
59973;DHT22;55298;-36.624;-64.282;2023-02-02T01:31:35;23.60;99.90
59973;DHT22;55298;-36.624;-64.282;2023-02-02T01:34:05;23.60;99.90
59973;DHT22;55298;-36.624;-64.282;2023-02-02T01:36:33;23.60;99.90
59973;DHT22;55298;-36.624;-64.282;2023-02-02T01:39:01;23.50;99.90
59973;DHT22;55298;-36.624;-64.282;2023-02-02T01:41:29;23.40;99.90
59973;DHT22;55298;-36.624;-64.282;2023-02-02T01:44:01;23.40;99.90
59973;DHT22;55298;-36.624;-64.282;2023-02-02T01:46:31;23.40;99.90
59973;DHT22;55298;-36.624;-64.282;2023-02-02T01:49:10;23.40;99.90
59973;DHT22;55298;-36.624;-64.282;2023-02-02T01:51:49;23.30;99.90
59973;DHT22;55298;-36.624;-64.282;2023-02-02T01:54:27;23.30;99.90
59973;DHT22;55298;-36.624;-64.282;2023-02-02T01:57:02;23.30;99.90
59973;DHT22;55298;-36.624;-64.282;2023-02-02T01:59:31;23.30;99.90
59973;DHT22;55298;-36.624;-64.282;2023-02-02T02:02:00;23.40;99.90
59973;DHT22;55298;-36.624;-64.282;2023-02-02T02:04:30;23.30;99.90
59973;DHT22;55298;-36.624;-64.282;2023-02-02T02:07:00;23.30;99.90
59973;DHT22;55298;-36.624;-64.282;2023-02-02T02:09:29;23.30;99.90
59973;DHT22;55298;-36.624;-64.282;2023-02-02T02:11:57;23.30;99.90
59973;DHT22;55298;-36.624;-64.282;2023-02-02T02:14:25;23.20;99.90
59973;DHT22;55298;-36.624;-64.282;2023-02-02T02:17:18;23.20;99.90
59973;DHT22;55298;-36.624;-64.282;2023-02-02T02:20:14;23.20;99.90
59973;DHT22;55298;-36.624;-64.282;2023-02-02T02:23:39;23.20;99.90
59973;DHT22;55298;-36.624;-64.282;2023-02-02T02:26:41;23.20;99.90
59973;DHT22;55298;-36.624;-64.282;2023-02-02T02:29:40;23.20;99.90
59973;DHT22;55298;-36.624;-64.282;2023-02-02T02:38:04;22.90;99.90
59973;DHT22;55298;-36.624;-64.282;2023-02-02T02:40:41;22.90;99.90
59973;DHT22;55298;-36.624;-64.282;2023-02-02T02:43:19;22.80;99.90
59973;DHT22;55298;-36.624;-64.282;2023-02-02T02:45:50;22.70;99.90
59973;DHT22;55298;-36.624;-64.282;2023-02-02T02:48:19;22.70;99.90
59973;DHT22;55298;-36.624;-64.282;2023-02-02T02:50:47;22.60;99.90
59973;DHT22;55298;-36.624;-64.282;2023-02-02T02:53:19;22.60;99.90
59973;DHT22;55298;-36.624;-64.282;2023-02-02T02:56:00;22.40;99.90
59973;DHT22;55298;-36.624;-64.282;2023-02-02T02:58:46;22.40;99.90
59973;DHT22;55298;-36.624;-64.282;2023-02-02T03:04:08;22.30;99.90
59973;DHT22;55298;-36.624;-64.282;2023-02-02T03:06:54;22.20;99.90
59973;DHT22;55298;-36.624;-64.282;2023-02-02T03:09:28;22.10;99.90
59973;DHT22;55298;-36.624;-64.282;2023-02-02T03:11:59;22.10;99.90
59973;DHT22;55298;-36.624;-64.282;2023-02-02T03:14:28;22.10;99.90
59973;DHT22;55298;-36.624;-64.282;2023-02-02T03:16:59;22.00;99.90
59973;DHT22;55298;-36.624;-64.282;2023-02-02T03:19:29;22.00;99.90
59973;DHT22;55298;-36.624;-64.282;2023-02-02T03:21:58;21.90;99.90
59973;DHT22;55298;-36.624;-64.282;2023-02-02T03:24:27;21.90;99.90
59973;DHT22;55298;-36.624;-64.282;2023-02-02T03:26:57;21.90;99.90
59973;DHT22;55298;-36.624;-64.282;2023-02-02T03:29:28;21.80;99.90
59973;DHT22;55298;-36.624;-64.282;2023-02-02T03:31:55;21.80;99.90
59973;DHT22;55298;-36.624;-64.282;2023-02-02T03:34:24;21.80;99.90
59973;DHT22;55298;-36.624;-64.282;2023-02-02T03:36:52;21.70;99.90
59973;DHT22;55298;-36.624;-64.282;2023-02-02T03:39:20;21.70;99.90
59973;DHT22;55298;-36.624;-64.282;2023-02-02T03:41:48;21.70;99.90
59973;DHT22;55298;-36.624;-64.282;2023-02-02T03:44:16;21.70;99.90
59973;DHT22;55298;-36.624;-64.282;2023-02-02T03:46:44;21.70;99.90
59973;DHT22;55298;-36.624;-64.282;2023-02-02T03:49:11;21.70;99.90
59973;DHT22;55298;-36.624;-64.282;2023-02-02T03:51:39;21.70;99.90
59973;DHT22;55298;-36.624;-64.282;2023-02-02T03:54:11;21.70;99.90
59973;DHT22;55298;-36.624;-64.282;2023-02-02T03:56:39;21.80;99.90
59973;DHT22;55298;-36.624;-64.282;2023-02-02T03:59:07;21.90;99.90
59973;DHT22;55298;-36.624;-64.282;2023-02-02T04:01:34;22.00;99.90
59973;DHT22;55298;-36.624;-64.282;2023-02-02T04:04:03;22.10;99.90
59973;DHT22;55298;-36.624;-64.282;2023-02-02T04:06:30;22.20;99.90
59973;DHT22;55298;-36.624;-64.282;2023-02-02T04:08:58;22.20;99.90
59973;DHT22;55298;-36.624;-64.282;2023-02-02T04:11:26;22.20;99.90
59973;DHT22;55298;-36.624;-64.282;2023-02-02T04:13:56;22.20;99.90
59973;DHT22;55298;-36.624;-64.282;2023-02-02T04:16:23;22.20;99.90
59973;DHT22;55298;-36.624;-64.282;2023-02-02T04:18:52;22.20;99.90
59973;DHT22;55298;-36.624;-64.282;2023-02-02T04:21:20;22.20;99.90
59973;DHT22;55298;-36.624;-64.282;2023-02-02T04:23:49;22.30;99.90
59973;DHT22;55298;-36.624;-64.282;2023-02-02T04:26:18;22.30;99.90
59973;DHT22;55298;-36.624;-64.282;2023-02-02T04:28:46;22.40;99.90
59973;DHT22;55298;-36.624;-64.282;2023-02-02T04:31:14;22.30;99.90
59973;DHT22;55298;-36.624;-64.282;2023-02-02T04:33:42;22.40;99.90
59973;DHT22;55298;-36.624;-64.282;2023-02-02T04:36:11;22.40;99.90
59973;DHT22;55298;-36.624;-64.282;2023-02-02T04:38:40;22.40;99.90
59973;DHT22;55298;-36.624;-64.282;2023-02-02T04:41:12;22.30;99.90
59973;DHT22;55298;-36.624;-64.282;2023-02-02T04:43:40;22.30;99.90
59973;DHT22;55298;-36.624;-64.282;2023-02-02T04:46:09;22.30;99.90
59973;DHT22;55298;-36.624;-64.282;2023-02-02T04:48:38;22.30;99.90
59973;DHT22;55298;-36.624;-64.282;2023-02-02T04:51:09;22.30;99.90
59973;DHT22;55298;-36.624;-64.282;2023-02-02T04:53:40;22.20;99.90
59973;DHT22;55298;-36.624;-64.282;2023-02-02T04:56:12;22.10;99.90
59973;DHT22;55298;-36.624;-64.282;2023-02-02T04:58:42;22.10;99.90
59973;DHT22;55298;-36.624;-64.282;2023-02-02T05:01:14;22.10;99.90
59973;DHT22;55298;-36.624;-64.282;2023-02-02T05:03:43;22.10;99.90
59973;DHT22;55298;-36.624;-64.282;2023-02-02T05:06:10;22.00;99.90
59973;DHT22;55298;-36.624;-64.282;2023-02-02T05:08:39;22.10;99.90
59973;DHT22;55298;-36.624;-64.282;2023-02-02T05:11:10;22.00;99.90
59973;DHT22;55298;-36.624;-64.282;2023-02-02T05:13:46;21.90;99.90
59973;DHT22;55298;-36.624;-64.282;2023-02-02T05:16:14;21.90;99.90
59973;DHT22;55298;-36.624;-64.282;2023-02-02T05:18:47;21.90;99.90
59973;DHT22;55298;-36.624;-64.282;2023-02-02T05:21:18;21.90;99.90
59973;DHT22;55298;-36.624;-64.282;2023-02-02T05:23:47;21.90;99.90
59973;DHT22;55298;-36.624;-64.282;2023-02-02T05:26:18;22.00;99.90
59973;DHT22;55298;-36.624;-64.282;2023-02-02T05:28:48;22.00;99.90
59973;DHT22;55298;-36.624;-64.282;2023-02-02T05:31:16;22.00;99.90
59973;DHT22;55298;-36.624;-64.282;2023-02-02T05:33:45;22.10;99.90
59973;DHT22;55298;-36.624;-64.282;2023-02-02T05:36:12;22.10;99.90
59973;DHT22;55298;-36.624;-64.282;2023-02-02T05:38:41;22.00;99.90
59973;DHT22;55298;-36.624;-64.282;2023-02-02T05:41:10;22.00;99.90
59973;DHT22;55298;-36.624;-64.282;2023-02-02T05:43:38;22.00;99.90
59973;DHT22;55298;-36.624;-64.282;2023-02-02T05:46:06;21.90;99.90
59973;DHT22;55298;-36.624;-64.282;2023-02-02T05:48:35;21.80;99.90
59973;DHT22;55298;-36.624;-64.282;2023-02-02T05:51:08;21.80;99.90
59973;DHT22;55298;-36.624;-64.282;2023-02-02T05:53:38;21.70;99.90
59973;DHT22;55298;-36.624;-64.282;2023-02-02T05:56:07;21.70;99.90
59973;DHT22;55298;-36.624;-64.282;2023-02-02T05:58:35;21.60;99.90
59973;DHT22;55298;-36.624;-64.282;2023-02-02T06:01:04;21.60;99.90
59973;DHT22;55298;-36.624;-64.282;2023-02-02T06:03:33;21.50;99.90
59973;DHT22;55298;-36.624;-64.282;2023-02-02T06:06:01;21.50;99.90
59973;DHT22;55298;-36.624;-64.282;2023-02-02T06:08:29;21.40;99.90
59973;DHT22;55298;-36.624;-64.282;2023-02-02T06:10:57;21.30;99.90
59973;DHT22;55298;-36.624;-64.282;2023-02-02T06:13:26;21.20;99.90
59973;DHT22;55298;-36.624;-64.282;2023-02-02T06:15:54;21.20;99.90
59973;DHT22;55298;-36.624;-64.282;2023-02-02T06:18:21;21.20;99.90
59973;DHT22;55298;-36.624;-64.282;2023-02-02T06:20:57;21.20;99.90
59973;DHT22;55298;-36.624;-64.282;2023-02-02T06:23:26;21.20;99.90
59973;DHT22;55298;-36.624;-64.282;2023-02-02T06:25:53;21.20;99.90
59973;DHT22;55298;-36.624;-64.282;2023-02-02T06:28:22;21.20;99.90
59973;DHT22;55298;-36.624;-64.282;2023-02-02T06:30:51;21.30;99.90
59973;DHT22;55298;-36.624;-64.282;2023-02-02T06:33:18;21.20;99.90
59973;DHT22;55298;-36.624;-64.282;2023-02-02T06:35:46;21.20;99.90
59973;DHT22;55298;-36.624;-64.282;2023-02-02T06:38:14;21.20;99.90
59973;DHT22;55298;-36.624;-64.282;2023-02-02T06:40:42;21.10;99.90
59973;DHT22;55298;-36.624;-64.282;2023-02-02T06:43:10;21.10;99.90
59973;DHT22;55298;-36.624;-64.282;2023-02-02T06:45:41;21.00;99.90
59973;DHT22;55298;-36.624;-64.282;2023-02-02T06:48:10;21.00;99.90
59973;DHT22;55298;-36.624;-64.282;2023-02-02T06:50:40;20.90;99.90
59973;DHT22;55298;-36.624;-64.282;2023-02-02T06:53:07;20.90;99.90
59973;DHT22;55298;-36.624;-64.282;2023-02-02T06:55:36;20.80;99.90
59973;DHT22;55298;-36.624;-64.282;2023-02-02T06:58:06;20.70;99.90
59973;DHT22;55298;-36.624;-64.282;2023-02-02T07:00:33;20.70;99.90
59973;DHT22;55298;-36.624;-64.282;2023-02-02T07:03:03;20.70;99.90
59973;DHT22;55298;-36.624;-64.282;2023-02-02T07:05:31;20.70;99.90
59973;DHT22;55298;-36.624;-64.282;2023-02-02T07:07:59;20.60;99.90
59973;DHT22;55298;-36.624;-64.282;2023-02-02T07:10:27;20.50;99.90
59973;DHT22;55298;-36.624;-64.282;2023-02-02T07:12:55;20.50;99.90
59973;DHT22;55298;-36.624;-64.282;2023-02-02T07:15:23;20.50;99.90
59973;DHT22;55298;-36.624;-64.282;2023-02-02T07:17:54;20.40;99.90
59973;DHT22;55298;-36.624;-64.282;2023-02-02T07:20:22;20.50;99.90
59973;DHT22;55298;-36.624;-64.282;2023-02-02T07:22:50;20.30;99.90
59973;DHT22;55298;-36.624;-64.282;2023-02-02T07:25:18;20.30;99.90
59973;DHT22;55298;-36.624;-64.282;2023-02-02T07:27:46;20.30;99.90
59973;DHT22;55298;-36.624;-64.282;2023-02-02T07:30:15;20.30;99.90
59973;DHT22;55298;-36.624;-64.282;2023-02-02T07:32:47;20.30;99.90
59973;DHT22;55298;-36.624;-64.282;2023-02-02T07:35:16;20.30;99.90
59973;DHT22;55298;-36.624;-64.282;2023-02-02T07:37:43;20.30;99.90
59973;DHT22;55298;-36.624;-64.282;2023-02-02T07:40:17;20.30;99.90
59973;DHT22;55298;-36.624;-64.282;2023-02-02T07:42:46;20.30;99.90
59973;DHT22;55298;-36.624;-64.282;2023-02-02T07:45:15;20.30;99.90
59973;DHT22;55298;-36.624;-64.282;2023-02-02T07:47:44;20.20;99.90
59973;DHT22;55298;-36.624;-64.282;2023-02-02T07:50:13;20.20;99.90
59973;DHT22;55298;-36.624;-64.282;2023-02-02T07:52:41;20.20;99.90
59973;DHT22;55298;-36.624;-64.282;2023-02-02T07:55:09;20.20;99.90
59973;DHT22;55298;-36.624;-64.282;2023-02-02T07:57:37;20.20;99.90
59973;DHT22;55298;-36.624;-64.282;2023-02-02T08:00:05;20.20;99.90
59973;DHT22;55298;-36.624;-64.282;2023-02-02T08:02:34;20.20;99.90
59973;DHT22;55298;-36.624;-64.282;2023-02-02T08:05:03;20.10;99.90
59973;DHT22;55298;-36.624;-64.282;2023-02-02T08:07:34;20.10;99.90
59973;DHT22;55298;-36.624;-64.282;2023-02-02T08:10:02;20.10;99.90
59973;DHT22;55298;-36.624;-64.282;2023-02-02T08:12:30;20.20;99.90
59973;DHT22;55298;-36.624;-64.282;2023-02-02T08:14:59;20.20;99.90
59973;DHT22;55298;-36.624;-64.282;2023-02-02T08:17:27;20.20;99.90
59973;DHT22;55298;-36.624;-64.282;2023-02-02T08:19:54;20.20;99.90
59973;DHT22;55298;-36.624;-64.282;2023-02-02T08:22:22;20.20;99.90
59973;DHT22;55298;-36.624;-64.282;2023-02-02T08:24:50;20.20;99.90
59973;DHT22;55298;-36.624;-64.282;2023-02-02T08:27:18;20.20;99.90
59973;DHT22;55298;-36.624;-64.282;2023-02-02T08:29:46;20.20;99.90
59973;DHT22;55298;-36.624;-64.282;2023-02-02T08:32:14;20.20;99.90
59973;DHT22;55298;-36.624;-64.282;2023-02-02T08:34:42;20.20;99.90
59973;DHT22;55298;-36.624;-64.282;2023-02-02T08:37:09;20.20;99.90
59973;DHT22;55298;-36.624;-64.282;2023-02-02T08:39:38;20.10;99.90
59973;DHT22;55298;-36.624;-64.282;2023-02-02T08:42:07;20.10;99.90
59973;DHT22;55298;-36.624;-64.282;2023-02-02T08:44:35;20.10;99.90
59973;DHT22;55298;-36.624;-64.282;2023-02-02T08:47:04;20.10;99.90
59973;DHT22;55298;-36.624;-64.282;2023-02-02T08:49:32;20.10;99.90
59973;DHT22;55298;-36.624;-64.282;2023-02-02T08:52:00;20.10;99.90
59973;DHT22;55298;-36.624;-64.282;2023-02-02T08:54:28;20.10;99.90
59973;DHT22;55298;-36.624;-64.282;2023-02-02T08:56:57;20.00;99.90
59973;DHT22;55298;-36.624;-64.282;2023-02-02T08:59:25;20.00;99.90
59973;DHT22;55298;-36.624;-64.282;2023-02-02T09:01:52;20.00;99.90
59973;DHT22;55298;-36.624;-64.282;2023-02-02T09:04:21;20.00;99.90
59973;DHT22;55298;-36.624;-64.282;2023-02-02T09:06:49;19.90;99.90
59973;DHT22;55298;-36.624;-64.282;2023-02-02T09:09:17;20.00;99.90
59973;DHT22;55298;-36.624;-64.282;2023-02-02T09:11:45;19.80;99.90
59973;DHT22;55298;-36.624;-64.282;2023-02-02T09:14:13;19.90;99.90
59973;DHT22;55298;-36.624;-64.282;2023-02-02T09:16:41;19.90;99.90
59973;DHT22;55298;-36.624;-64.282;2023-02-02T09:19:10;19.90;99.90
59973;DHT22;55298;-36.624;-64.282;2023-02-02T09:21:38;19.90;99.90
59973;DHT22;55298;-36.624;-64.282;2023-02-02T09:24:09;19.90;99.90
59973;DHT22;55298;-36.624;-64.282;2023-02-02T09:26:37;19.90;99.90
59973;DHT22;55298;-36.624;-64.282;2023-02-02T09:29:09;19.90;99.90
59973;DHT22;55298;-36.624;-64.282;2023-02-02T09:31:38;19.90;99.90
59973;DHT22;55298;-36.624;-64.282;2023-02-02T09:34:10;19.80;99.90
59973;DHT22;55298;-36.624;-64.282;2023-02-02T09:36:39;19.80;99.90
59973;DHT22;55298;-36.624;-64.282;2023-02-02T09:39:09;19.80;99.90
59973;DHT22;55298;-36.624;-64.282;2023-02-02T09:42:01;19.70;99.90
59973;DHT22;55298;-36.624;-64.282;2023-02-02T09:47:36;19.60;99.90
59973;DHT22;55298;-36.624;-64.282;2023-02-02T09:50:44;19.70;99.90
59973;DHT22;55298;-36.624;-64.282;2023-02-02T09:53:21;19.60;99.90
59973;DHT22;55298;-36.624;-64.282;2023-02-02T09:55:51;19.70;99.90
59973;DHT22;55298;-36.624;-64.282;2023-02-02T09:58:24;19.70;99.90
59973;DHT22;55298;-36.624;-64.282;2023-02-02T10:01:09;19.70;99.90
59973;DHT22;55298;-36.624;-64.282;2023-02-02T10:06:41;19.70;99.90
59973;DHT22;55298;-36.624;-64.282;2023-02-02T10:09:14;19.70;99.90
59973;DHT22;55298;-36.624;-64.282;2023-02-02T10:11:53;19.70;99.90
59973;DHT22;55298;-36.624;-64.282;2023-02-02T10:14:24;19.70;99.90
59973;DHT22;55298;-36.624;-64.282;2023-02-02T10:16:59;19.80;99.90
59973;DHT22;55298;-36.624;-64.282;2023-02-02T10:19:31;19.80;99.90
59973;DHT22;55298;-36.624;-64.282;2023-02-02T10:22:13;19.80;99.90
59973;DHT22;55298;-36.624;-64.282;2023-02-02T10:24:43;19.90;99.90
59973;DHT22;55298;-36.624;-64.282;2023-02-02T10:27:14;19.90;99.90
59973;DHT22;55298;-36.624;-64.282;2023-02-02T10:29:55;19.80;99.90
59973;DHT22;55298;-36.624;-64.282;2023-02-02T10:32:27;19.70;99.90
59973;DHT22;55298;-36.624;-64.282;2023-02-02T10:35:10;19.70;99.90
59973;DHT22;55298;-36.624;-64.282;2023-02-02T10:37:51;19.90;99.90
59973;DHT22;55298;-36.624;-64.282;2023-02-02T10:40:41;19.80;99.90
59973;DHT22;55298;-36.624;-64.282;2023-02-02T10:43:32;19.80;99.90
59973;DHT22;55298;-36.624;-64.282;2023-02-02T10:46:32;19.80;99.90
59973;DHT22;55298;-36.624;-64.282;2023-02-02T10:49:13;19.70;99.90
59973;DHT22;55298;-36.624;-64.282;2023-02-02T10:54:49;19.60;99.90
59973;DHT22;55298;-36.624;-64.282;2023-02-02T10:57:29;19.60;99.90
59973;DHT22;55298;-36.624;-64.282;2023-02-02T11:00:09;19.70;99.90
59973;DHT22;55298;-36.624;-64.282;2023-02-02T11:02:39;19.60;99.90
59973;DHT22;55298;-36.624;-64.282;2023-02-02T11:05:19;19.70;99.90
59973;DHT22;55298;-36.624;-64.282;2023-02-02T11:07:57;19.70;99.90
59973;DHT22;55298;-36.624;-64.282;2023-02-02T11:10:25;19.70;99.90
59973;DHT22;55298;-36.624;-64.282;2023-02-02T11:12:53;19.80;99.90
59973;DHT22;55298;-36.624;-64.282;2023-02-02T11:15:27;19.80;99.90
59973;DHT22;55298;-36.624;-64.282;2023-02-02T11:18:13;19.80;99.90
59973;DHT22;55298;-36.624;-64.282;2023-02-02T11:20:52;19.90;99.90
59973;DHT22;55298;-36.624;-64.282;2023-02-02T11:23:20;19.90;99.90
59973;DHT22;55298;-36.624;-64.282;2023-02-02T11:25:59;20.00;99.90
59973;DHT22;55298;-36.624;-64.282;2023-02-02T11:28:33;20.10;99.90
59973;DHT22;55298;-36.624;-64.282;2023-02-02T11:31:04;20.10;99.90
59973;DHT22;55298;-36.624;-64.282;2023-02-02T11:33:36;20.20;99.90
59973;DHT22;55298;-36.624;-64.282;2023-02-02T11:36:20;20.30;99.90
59973;DHT22;55298;-36.624;-64.282;2023-02-02T11:39:17;20.40;99.90
59973;DHT22;55298;-36.624;-64.282;2023-02-02T11:41:47;20.50;99.90
59973;DHT22;55298;-36.624;-64.282;2023-02-02T11:44:24;20.70;99.90
59973;DHT22;55298;-36.624;-64.282;2023-02-02T11:46:54;20.70;99.90
59973;DHT22;55298;-36.624;-64.282;2023-02-02T11:49:24;20.80;99.90
59973;DHT22;55298;-36.624;-64.282;2023-02-02T11:52:03;20.80;99.90
59973;DHT22;55298;-36.624;-64.282;2023-02-02T11:54:49;21.00;99.90
59973;DHT22;55298;-36.624;-64.282;2023-02-02T11:57:20;21.00;99.90
59973;DHT22;55298;-36.624;-64.282;2023-02-02T12:00:16;21.10;99.90
59973;DHT22;55298;-36.624;-64.282;2023-02-02T12:02:47;21.20;99.90
59973;DHT22;55298;-36.624;-64.282;2023-02-02T12:05:36;21.20;99.90
59973;DHT22;55298;-36.624;-64.282;2023-02-02T12:08:07;21.30;99.90
59973;DHT22;55298;-36.624;-64.282;2023-02-02T12:10:49;21.50;99.90
59973;DHT22;55298;-36.624;-64.282;2023-02-02T12:13:42;21.50;99.90
59973;DHT22;55298;-36.624;-64.282;2023-02-02T12:19:18;21.70;99.90
59973;DHT22;55298;-36.624;-64.282;2023-02-02T12:22:46;21.90;99.90
59973;DHT22;55298;-36.624;-64.282;2023-02-02T12:25:36;22.40;99.90
59973;DHT22;55298;-36.624;-64.282;2023-02-02T12:28:31;22.60;99.90
59973;DHT22;55298;-36.624;-64.282;2023-02-02T12:34:16;22.60;99.90
59973;DHT22;55298;-36.624;-64.282;2023-02-02T12:37:15;22.50;99.90
59973;DHT22;55298;-36.624;-64.282;2023-02-02T12:40:00;22.60;99.90
59973;DHT22;55298;-36.624;-64.282;2023-02-02T12:43:03;22.70;99.90
59973;DHT22;55298;-36.624;-64.282;2023-02-02T12:45:41;22.70;99.90
59973;DHT22;55298;-36.624;-64.282;2023-02-02T12:48:40;22.90;99.90
59973;DHT22;55298;-36.624;-64.282;2023-02-02T12:57:15;23.30;99.90
59973;DHT22;55298;-36.624;-64.282;2023-02-02T13:02:44;23.70;99.90
59973;DHT22;55298;-36.624;-64.282;2023-02-02T13:08:17;24.50;99.90
59973;DHT22;55298;-36.624;-64.282;2023-02-02T13:10:54;24.70;99.90
59973;DHT22;55298;-36.624;-64.282;2023-02-02T13:13:32;24.30;99.90
59973;DHT22;55298;-36.624;-64.282;2023-02-02T13:16:10;24.20;99.90
59973;DHT22;55298;-36.624;-64.282;2023-02-02T13:18:47;24.30;99.90
59973;DHT22;55298;-36.624;-64.282;2023-02-02T13:21:20;24.30;99.90
59973;DHT22;55298;-36.624;-64.282;2023-02-02T13:23:52;24.20;99.90
59973;DHT22;55298;-36.624;-64.282;2023-02-02T13:26:35;24.20;99.90
59973;DHT22;55298;-36.624;-64.282;2023-02-02T13:34:55;25.90;99.90
59973;DHT22;55298;-36.624;-64.282;2023-02-02T13:37:34;26.80;99.40
59973;DHT22;55298;-36.624;-64.282;2023-02-02T13:40:22;27.20;96.00
59973;DHT22;55298;-36.624;-64.282;2023-02-02T13:43:08;27.10;95.20
59973;DHT22;55298;-36.624;-64.282;2023-02-02T13:45:48;26.60;95.80
59973;DHT22;55298;-36.624;-64.282;2023-02-02T13:54:09;26.70;98.70
59973;DHT22;55298;-36.624;-64.282;2023-02-02T13:57:08;27.50;95.70
59973;DHT22;55298;-36.624;-64.282;2023-02-02T14:00:03;27.60;92.40
59973;DHT22;55298;-36.624;-64.282;2023-02-02T14:02:48;27.60;92.90
59973;DHT22;55298;-36.624;-64.282;2023-02-02T14:05:34;27.60;92.70
59973;DHT22;55298;-36.624;-64.282;2023-02-02T14:08:15;27.20;92.20
59973;DHT22;55298;-36.624;-64.282;2023-02-02T14:10:58;26.90;92.70
59973;DHT22;55298;-36.624;-64.282;2023-02-02T14:13:47;27.20;93.70
59973;DHT22;55298;-36.624;-64.282;2023-02-02T14:16:48;27.90;92.90
59973;DHT22;55298;-36.624;-64.282;2023-02-02T14:19:51;27.90;90.40
59973;DHT22;55298;-36.624;-64.282;2023-02-02T14:22:39;27.80;87.50
59973;DHT22;55298;-36.624;-64.282;2023-02-02T14:28:07;27.60;85.70
59973;DHT22;55298;-36.624;-64.282;2023-02-02T14:30:37;27.70;86.80
59973;DHT22;55298;-36.624;-64.282;2023-02-02T14:33:23;28.00;85.20
59973;DHT22;55298;-36.624;-64.282;2023-02-02T14:35:57;28.00;83.30
59973;DHT22;55298;-36.624;-64.282;2023-02-02T14:41:42;28.20;79.10
59973;DHT22;55298;-36.624;-64.282;2023-02-02T14:44:26;28.50;79.80
59973;DHT22;55298;-36.624;-64.282;2023-02-02T14:47:01;29.10;77.90
59973;DHT22;55298;-36.624;-64.282;2023-02-02T14:49:33;29.50;75.30
59973;DHT22;55298;-36.624;-64.282;2023-02-02T14:52:03;29.70;72.80
59973;DHT22;55298;-36.624;-64.282;2023-02-02T14:54:38;29.90;73.90
59973;DHT22;55298;-36.624;-64.282;2023-02-02T14:57:21;30.00;73.10
59973;DHT22;55298;-36.624;-64.282;2023-02-02T15:00:03;30.20;67.60
59973;DHT22;55298;-36.624;-64.282;2023-02-02T15:02:35;30.20;65.80
59973;DHT22;55298;-36.624;-64.282;2023-02-02T15:08:20;30.30;64.90
59973;DHT22;55298;-36.624;-64.282;2023-02-02T15:11:04;30.30;65.00
59973;DHT22;55298;-36.624;-64.282;2023-02-02T15:13:57;30.70;66.30
59973;DHT22;55298;-36.624;-64.282;2023-02-02T15:16:35;31.40;63.60
59973;DHT22;55298;-36.624;-64.282;2023-02-02T15:19:34;30.90;62.70
59973;DHT22;55298;-36.624;-64.282;2023-02-02T15:21:58;30.20;63.10
59973;DHT22;55298;-36.624;-64.282;2023-02-02T15:24:31;30.80;60.60
59973;DHT22;55298;-36.624;-64.282;2023-02-02T15:27:05;31.20;58.30
59973;DHT22;55298;-36.624;-64.282;2023-02-02T15:29:45;31.70;60.30
59973;DHT22;55298;-36.624;-64.282;2023-02-02T15:32:17;32.30;55.20
59973;DHT22;55298;-36.624;-64.282;2023-02-02T15:34:52;32.80;56.60
59973;DHT22;55298;-36.624;-64.282;2023-02-02T15:37:28;32.80;53.50
59973;DHT22;55298;-36.624;-64.282;2023-02-02T15:40:16;32.60;55.70
59973;DHT22;55298;-36.624;-64.282;2023-02-02T15:42:50;32.30;53.90
59973;DHT22;55298;-36.624;-64.282;2023-02-02T15:45:41;31.50;54.60
59973;DHT22;55298;-36.624;-64.282;2023-02-02T15:48:28;31.30;54.80
59973;DHT22;55298;-36.624;-64.282;2023-02-02T15:51:05;31.00;57.00
59973;DHT22;55298;-36.624;-64.282;2023-02-02T15:53:51;30.60;56.80
59973;DHT22;55298;-36.624;-64.282;2023-02-02T15:56:28;30.50;58.20
59973;DHT22;55298;-36.624;-64.282;2023-02-02T15:58:59;31.00;58.40
59973;DHT22;55298;-36.624;-64.282;2023-02-02T16:01:31;31.10;55.20
59973;DHT22;55298;-36.624;-64.282;2023-02-02T16:04:19;31.00;56.00
59973;DHT22;55298;-36.624;-64.282;2023-02-02T16:06:49;30.60;57.20
59973;DHT22;55298;-36.624;-64.282;2023-02-02T16:09:25;30.30;57.50
59973;DHT22;55298;-36.624;-64.282;2023-02-02T16:11:59;29.80;58.30
59973;DHT22;55298;-36.624;-64.282;2023-02-02T16:14:30;29.60;59.20
59973;DHT22;55298;-36.624;-64.282;2023-02-02T16:17:18;29.80;60.30
59973;DHT22;55298;-36.624;-64.282;2023-02-02T16:19:55;30.10;57.90
59973;DHT22;55298;-36.624;-64.282;2023-02-02T16:22:25;30.40;57.80
59973;DHT22;55298;-36.624;-64.282;2023-02-02T16:25:00;30.50;57.00